createdAt,value
2018-10-21T00:02:19.014Z,14.09
2018-10-21T00:04:47.413Z,14.45
2018-10-21T00:07:15.841Z,14.23
2018-10-21T00:09:44.228Z,14.24
2018-10-21T00:12:29.912Z,14.45
2018-10-21T00:14:58.488Z,14.45
2018-10-21T00:17:26.905Z,14.41
2018-10-21T00:19:55.234Z,14.30
2018-10-21T00:22:23.695Z,13.81
2018-10-21T00:24:52.097Z,14.14
2018-10-21T00:27:20.568Z,14.08
2018-10-21T00:29:51.033Z,14.07
2018-10-21T00:32:19.361Z,13.92
2018-10-21T00:34:47.783Z,13.78
2018-10-21T00:37:16.188Z,13.88
2018-10-21T00:39:44.597Z,13.89
2018-10-21T00:42:16.639Z,13.77
2018-10-21T00:44:44.934Z,13.59
2018-10-21T00:47:13.402Z,13.54
2018-10-21T00:49:41.740Z,13.38
2018-10-21T00:52:10.196Z,13.35
2018-10-21T00:54:38.578Z,13.59
2018-10-21T00:57:06.984Z,13.52
2018-10-21T00:59:35.323Z,13.67
2018-10-21T01:02:03.688Z,13.33
2018-10-21T01:04:31.963Z,13.04
2018-10-21T01:07:00.391Z,13.14
2018-10-21T01:09:28.827Z,13.37
2018-10-21T01:11:57.145Z,13.32
2018-10-21T01:14:25.495Z,13.32
2018-10-21T01:16:53.884Z,13.03
2018-10-21T01:19:35.166Z,13.12
2018-10-21T01:22:03.544Z,13.36
2018-10-21T01:24:33.961Z,13.14
2018-10-21T01:27:02.424Z,13.23
2018-10-21T01:29:47.372Z,13.16
2018-10-21T01:32:17.372Z,13.10
2018-10-21T01:34:45.941Z,13.11
2018-10-21T01:37:16.355Z,13.22
2018-10-21T01:40:52.827Z,13.08
2018-10-21T01:43:22.433Z,13.05
2018-10-21T01:45:56.389Z,12.91
2018-10-21T01:48:25.882Z,12.94
2018-10-21T01:50:54.254Z,12.90
2018-10-21T01:53:23.099Z,12.80
2018-10-21T01:55:51.497Z,12.77
2018-10-21T01:58:19.946Z,12.78
2018-10-21T02:00:48.324Z,12.81
2018-10-21T02:03:17.113Z,12.96
2018-10-21T02:05:46.343Z,12.89
2018-10-21T02:08:14.656Z,12.93
2018-10-21T02:10:42.978Z,12.77
2018-10-21T02:13:11.398Z,12.43
2018-10-21T02:15:39.824Z,12.17
2018-10-21T02:18:08.151Z,12.30
2018-10-21T02:20:36.497Z,12.21
2018-10-21T02:23:04.887Z,12.21
2018-10-21T02:25:33.223Z,12.51
2018-10-21T02:28:02.683Z,12.57
2018-10-21T02:30:31.703Z,12.52
2018-10-21T02:33:02.428Z,12.22
2018-10-21T02:35:30.695Z,12.49
2018-10-21T02:37:59.114Z,12.54
2018-10-21T02:41:41.068Z,12.38
2018-10-21T02:44:11.687Z,12.24
2018-10-21T02:46:40.242Z,12.08
2018-10-21T02:49:09.343Z,12.14
2018-10-21T02:51:37.705Z,12.17
2018-10-21T02:54:06.799Z,12.24
2018-10-21T02:56:35.101Z,12.35
2018-10-21T02:59:03.402Z,11.97
2018-10-21T03:01:36.062Z,12.18
2018-10-21T03:04:04.379Z,12.09
2018-10-21T03:06:32.703Z,11.99
2018-10-21T03:09:03.231Z,12.26
2018-10-21T03:11:31.579Z,12.27
2018-10-21T03:13:59.887Z,12.25
2018-10-21T03:16:28.178Z,12.18
2018-10-21T03:18:56.561Z,12.09
2018-10-21T03:21:24.907Z,12.16
2018-10-21T03:26:49.413Z,12.21
2018-10-21T03:29:17.708Z,12.10
2018-10-21T03:31:46.021Z,11.92
2018-10-21T03:34:14.347Z,11.89
2018-10-21T03:36:42.622Z,12.10
2018-10-21T03:39:11.516Z,12.03
2018-10-21T03:41:39.923Z,12.16
2018-10-21T03:44:08.269Z,12.11
2018-10-21T03:46:36.609Z,11.92
2018-10-21T03:49:04.933Z,11.89
2018-10-21T03:51:33.212Z,11.76
2018-10-21T03:54:01.590Z,11.86
2018-10-21T03:56:29.948Z,11.87
2018-10-21T03:58:58.362Z,11.88
2018-10-21T04:01:26.826Z,11.90
2018-10-21T04:03:55.099Z,11.81
2018-10-21T04:06:23.446Z,11.83
2018-10-21T04:08:55.107Z,11.90
2018-10-21T04:11:23.510Z,11.86
2018-10-21T04:13:51.786Z,11.89
2018-10-21T04:16:30.187Z,11.74
2018-10-21T04:18:58.526Z,11.88
2018-10-21T04:21:26.907Z,11.79
2018-10-21T04:23:55.247Z,11.59
2018-10-21T04:26:23.730Z,11.73
2018-10-21T04:28:52.002Z,11.64
2018-10-21T04:31:20.381Z,11.60
2018-10-21T04:33:48.739Z,11.40
2018-10-21T04:36:20.089Z,11.35
2018-10-21T04:40:07.524Z,11.14
2018-10-21T04:42:35.734Z,11.37
2018-10-21T04:45:04.461Z,11.35
2018-10-21T04:47:37.421Z,11.36
2018-10-21T04:50:07.022Z,11.40
2018-10-21T04:52:35.356Z,11.32
2018-10-21T04:55:05.736Z,11.51
2018-10-21T04:57:47.499Z,11.60
2018-10-21T05:00:20.504Z,11.58
2018-10-21T05:02:48.768Z,11.65
2018-10-21T05:05:17.167Z,11.50
2018-10-21T05:07:45.448Z,11.38
2018-10-21T05:10:20.998Z,11.46
2018-10-21T05:12:49.329Z,11.33
2018-10-21T05:15:17.727Z,11.22
2018-10-21T05:17:45.982Z,11.17
2018-10-21T05:20:14.532Z,11.02
2018-10-21T05:22:43.135Z,11.38
2018-10-21T05:25:11.917Z,11.31
2018-10-21T05:27:40.350Z,11.36
2018-10-21T05:30:13.231Z,11.38
2018-10-21T05:32:41.978Z,11.38
2018-10-21T05:35:28.866Z,11.22
2018-10-21T05:37:57.299Z,11.48
2018-10-21T05:40:25.677Z,11.72
2018-10-21T05:42:53.971Z,11.53
2018-10-21T05:45:22.501Z,11.42
2018-10-21T05:47:50.851Z,11.49
2018-10-21T05:50:19.219Z,11.46
2018-10-21T05:52:47.603Z,11.56
2018-10-21T05:55:16.353Z,11.21
2018-10-21T05:57:56.130Z,11.50
2018-10-21T06:00:24.414Z,11.82
2018-10-21T06:02:57.543Z,11.62
2018-10-21T06:05:45.196Z,11.82
2018-10-21T06:08:15.631Z,12.13
2018-10-21T06:10:44.612Z,11.51
2018-10-21T06:13:26.254Z,12.09
2018-10-21T06:15:55.654Z,12.37
2018-10-21T06:18:26.594Z,12.43
2018-10-21T06:20:58.498Z,12.11
2018-10-21T06:23:26.873Z,12.38
2018-10-21T06:25:55.315Z,12.75
2018-10-21T06:28:23.691Z,12.65
2018-10-21T06:30:52.535Z,12.84
2018-10-21T06:33:20.953Z,12.81
2018-10-21T06:35:52.799Z,12.84
2018-10-21T06:38:21.171Z,12.88
2018-10-21T06:41:04.059Z,13.00
2018-10-21T06:43:38.679Z,13.15
2018-10-21T06:46:06.997Z,13.38
2018-10-21T06:48:35.558Z,13.44
2018-10-21T06:51:04.282Z,13.09
2018-10-21T06:53:32.691Z,13.32
2018-10-21T06:56:01.218Z,13.26
2018-10-21T06:58:29.864Z,12.96
2018-10-21T07:01:00.710Z,13.12
2018-10-21T07:03:29.144Z,13.40
2018-10-21T07:06:19.351Z,13.10
2018-10-21T07:09:06.378Z,13.49
2018-10-21T07:11:35.835Z,13.63
2018-10-21T07:14:04.302Z,13.96
2018-10-21T07:16:32.952Z,13.74
2018-10-21T07:19:01.274Z,13.92
2018-10-21T07:21:29.684Z,13.97
2018-10-21T07:23:58.111Z,14.08
2018-10-21T07:26:34.078Z,13.90
2018-10-21T07:29:02.577Z,14.00
2018-10-21T07:31:31.120Z,14.34
2018-10-21T07:33:59.482Z,14.52
2018-10-21T07:36:27.875Z,14.64
2018-10-21T07:38:56.231Z,14.92
2018-10-21T07:41:24.631Z,14.69
2018-10-21T07:43:52.995Z,14.81
2018-10-21T07:46:21.483Z,14.53
2018-10-21T07:48:49.836Z,14.86
2018-10-21T07:51:18.255Z,15.13
2018-10-21T07:53:46.563Z,15.31
2018-10-21T07:56:15.043Z,15.49
2018-10-21T07:58:43.453Z,15.87
2018-10-21T08:01:11.897Z,15.81
2018-10-21T08:03:40.249Z,16.33
2018-10-21T08:06:29.917Z,16.54
2018-10-21T08:08:58.439Z,15.60
2018-10-21T08:11:31.326Z,15.95
2018-10-21T08:14:01.829Z,16.33
2018-10-21T08:16:32.372Z,16.20
2018-10-21T08:19:00.777Z,16.57
2018-10-21T08:24:28.614Z,15.97
2018-10-21T08:26:57.227Z,16.16
2018-10-21T08:29:25.567Z,16.52
2018-10-21T08:31:53.892Z,16.43
2018-10-21T08:34:22.402Z,16.32
2018-10-21T08:36:50.964Z,16.66
2018-10-21T08:39:19.605Z,16.85
2018-10-21T08:41:49.030Z,17.12
2018-10-21T08:44:17.886Z,17.13
2018-10-21T08:46:46.418Z,17.56
2018-10-21T08:49:15.178Z,17.02
2018-10-21T08:51:43.650Z,17.02
2018-10-21T08:54:13.216Z,17.72
2018-10-21T08:56:41.677Z,17.79
2018-10-21T08:59:11.194Z,18.02
2018-10-21T09:01:45.145Z,18.23
2018-10-21T09:04:14.809Z,17.40
2018-10-21T09:06:50.567Z,17.16
2018-10-21T09:09:21.001Z,17.56
2018-10-21T09:11:50.414Z,17.89
2018-10-21T09:14:25.496Z,18.05
2018-10-21T09:16:53.999Z,17.26
2018-10-21T09:19:23.627Z,17.82
2018-10-21T09:21:58.357Z,18.21
2018-10-21T09:24:26.800Z,18.11
2018-10-21T09:26:55.126Z,18.03
2018-10-21T09:29:23.522Z,17.49
2018-10-21T09:31:51.886Z,17.63
2018-10-21T09:34:20.446Z,17.94
2018-10-21T09:36:48.933Z,18.76
2018-10-21T09:39:17.736Z,18.68
2018-10-21T09:41:57.672Z,18.15
2018-10-21T09:47:19.283Z,18.73
2018-10-21T09:49:47.762Z,18.86
2018-10-21T09:52:17.445Z,18.97
2018-10-21T09:54:46.097Z,19.14
2018-10-21T09:57:14.698Z,19.45
2018-10-21T09:59:43.385Z,18.84
2018-10-21T10:02:17.199Z,19.55
2018-10-21T10:04:45.709Z,19.60
2018-10-21T10:07:14.656Z,19.38
2018-10-21T10:09:43.205Z,19.12
2018-10-21T10:12:11.793Z,19.25
2018-10-21T10:14:41.400Z,18.68
2018-10-21T10:17:10.273Z,19.51
2018-10-21T10:19:38.855Z,20.20
2018-10-21T10:22:08.620Z,20.13
2018-10-21T10:24:37.204Z,20.32
2018-10-21T10:27:06.105Z,19.79
2018-10-21T10:29:34.751Z,20.44
2018-10-21T10:32:06.002Z,21.13
2018-10-21T10:34:34.683Z,20.85
2018-10-21T10:37:03.456Z,21.19
2018-10-21T10:39:31.984Z,20.62
2018-10-21T10:42:00.817Z,21.10
2018-10-21T10:44:30.121Z,21.06
2018-10-21T10:46:58.710Z,20.94
2018-10-21T10:49:27.249Z,21.38
2018-10-21T10:51:56.043Z,21.15
2018-10-21T10:54:24.533Z,21.85
2018-10-21T10:56:53.170Z,21.54
2018-10-21T10:59:21.895Z,21.89
2018-10-21T11:01:50.555Z,22.24
2018-10-21T11:04:19.156Z,22.01
2018-10-21T11:06:55.982Z,22.24
2018-10-21T11:09:26.455Z,21.91
2018-10-21T11:12:01.904Z,21.80
2018-10-21T11:14:32.953Z,22.04
2018-10-21T11:17:01.459Z,22.26
2018-10-21T11:19:29.923Z,22.04
2018-10-21T11:21:58.541Z,22.30
2018-10-21T11:24:27.840Z,21.98
2018-10-21T11:26:56.383Z,21.50
2018-10-21T11:29:24.905Z,22.77
2018-10-21T11:31:53.425Z,23.24
2018-10-21T11:34:21.860Z,23.88
2018-10-21T11:36:50.593Z,24.19
2018-10-21T11:39:18.952Z,24.64
2018-10-21T11:41:47.552Z,25.02
2018-10-21T11:44:16.232Z,25.63
2018-10-21T11:46:44.831Z,25.94
2018-10-21T11:49:13.278Z,26.17
2018-10-21T11:51:42.131Z,26.13
2018-10-21T11:54:10.671Z,26.91
2018-10-21T11:56:39.427Z,27.28
2018-10-21T11:59:08.520Z,27.82
2018-10-21T12:01:37.035Z,27.85
2018-10-21T12:04:05.843Z,28.46
2018-10-21T12:06:34.361Z,29.54
2018-10-21T12:09:03.123Z,29.65
2018-10-21T12:11:32.049Z,30.15
2018-10-21T12:14:00.906Z,30.81
2018-10-21T12:16:30.547Z,32.45
2018-10-21T12:19:15.500Z,33.59
2018-10-21T12:21:44.694Z,33.08
2018-10-21T12:24:13.184Z,34.60
2018-10-21T12:26:41.627Z,34.32
2018-10-21T12:29:10.084Z,35.13
2018-10-21T12:31:38.347Z,35.39
2018-10-21T12:34:06.849Z,34.86
2018-10-21T12:36:35.154Z,36.24
2018-10-21T12:39:05.363Z,36.06
2018-10-21T12:41:34.019Z,36.16
2018-10-21T12:44:02.318Z,36.59
2018-10-21T12:46:30.624Z,36.59
2018-10-21T12:48:59.024Z,36.93
2018-10-21T12:51:27.364Z,38.12
2018-10-21T12:53:55.660Z,37.69
2018-10-21T12:56:24.278Z,38.17
2018-10-21T12:58:53.240Z,38.45
2018-10-21T13:01:21.750Z,38.06
2018-10-21T13:03:50.125Z,35.92
2018-10-21T13:06:18.548Z,37.48
2018-10-21T13:08:47.119Z,36.56
2018-10-21T13:11:15.491Z,35.98
2018-10-21T13:13:43.778Z,36.21
2018-10-21T13:16:12.190Z,37.32
2018-10-21T13:18:40.450Z,35.97
2018-10-21T13:21:08.779Z,36.65
2018-10-21T13:23:37.319Z,37.28
2018-10-21T13:26:05.922Z,37.59
2018-10-21T13:28:34.252Z,38.36
2018-10-21T13:31:02.569Z,38.09
2018-10-21T13:33:30.796Z,39.15
2018-10-21T13:35:59.156Z,39.69
2018-10-21T13:38:27.524Z,39.42
2018-10-21T13:40:55.927Z,40.65
2018-10-21T13:43:24.258Z,40.34
2018-10-21T13:45:52.805Z,39.67
2018-10-21T13:48:21.112Z,39.32
2018-10-21T13:50:49.560Z,39.62
2018-10-21T13:53:18.166Z,39.31
2018-10-21T13:55:46.488Z,39.88
2018-10-21T13:58:14.936Z,38.44
2018-10-21T14:00:43.281Z,39.08
2018-10-21T14:03:11.595Z,38.02
2018-10-21T14:05:39.922Z,39.41
2018-10-21T14:08:08.273Z,39.67
2018-10-21T14:10:36.580Z,40.08
2018-10-21T14:13:05.799Z,39.21
2018-10-21T14:15:34.290Z,39.56
2018-10-21T14:18:02.656Z,39.56
2018-10-21T14:20:30.993Z,38.95
2018-10-21T14:22:59.413Z,39.92
2018-10-21T14:25:27.843Z,39.76
2018-10-21T14:27:56.594Z,37.67
2018-10-21T14:30:24.920Z,38.28
2018-10-21T14:32:53.415Z,37.75
2018-10-21T14:35:21.854Z,38.42
2018-10-21T14:37:50.300Z,38.01
2018-10-21T14:40:18.958Z,38.69
2018-10-21T14:42:47.308Z,38.25
2018-10-21T14:45:15.722Z,38.66
2018-10-21T14:47:44.011Z,37.42
2018-10-21T14:50:12.723Z,37.69
2018-10-21T14:52:41.136Z,35.45
2018-10-21T14:55:10.499Z,35.75
2018-10-21T14:57:39.059Z,35.65
2018-10-21T15:00:09.451Z,35.03
2018-10-21T15:02:37.723Z,35.94
2018-10-21T15:05:09.045Z,35.60
2018-10-21T15:07:37.502Z,35.05
2018-10-21T15:10:07.175Z,34.48
2018-10-21T15:12:35.603Z,34.30
2018-10-21T15:15:04.049Z,33.58
2018-10-21T15:17:32.458Z,33.50
2018-10-21T15:20:00.874Z,30.56
2018-10-21T15:22:29.352Z,28.86
2018-10-21T15:24:57.704Z,27.91
2018-10-21T15:27:26.189Z,26.33
2018-10-21T15:29:54.585Z,25.70
2018-10-21T15:32:22.890Z,25.74
2018-10-21T15:34:51.314Z,24.42
2018-10-21T15:37:19.591Z,24.34
2018-10-21T15:39:48.083Z,23.73
2018-10-21T15:42:16.401Z,23.96
2018-10-21T15:44:44.728Z,23.86
2018-10-21T15:47:13.095Z,23.75
2018-10-21T15:49:41.411Z,23.16
2018-10-21T15:52:15.320Z,23.40
2018-10-21T15:54:44.098Z,23.25
2018-10-21T15:57:12.444Z,23.07
2018-10-21T15:59:41.256Z,22.87
2018-10-21T16:02:09.972Z,22.73
2018-10-21T16:04:38.504Z,21.85
2018-10-21T16:07:06.983Z,21.82
2018-10-21T16:09:35.278Z,22.15
2018-10-21T16:12:03.765Z,21.94
2018-10-21T16:14:32.437Z,21.91
2018-10-21T16:17:01.789Z,21.80
2018-10-21T16:19:30.068Z,21.24
2018-10-21T16:21:58.488Z,20.75
2018-10-21T16:24:26.984Z,20.43
2018-10-21T16:26:55.436Z,20.42
2018-10-21T16:29:24.121Z,20.49
2018-10-21T16:31:52.581Z,20.34
2018-10-21T16:34:20.848Z,20.33
2018-10-21T16:36:49.343Z,20.15
2018-10-21T16:39:17.848Z,19.98
2018-10-21T16:41:46.323Z,19.81
2018-10-21T16:44:21.230Z,19.74
2018-10-21T16:46:49.656Z,19.67
2018-10-21T16:49:18.030Z,19.49
2018-10-21T16:51:46.365Z,19.45
2018-10-21T16:54:14.864Z,19.28
2018-10-21T16:56:43.162Z,19.24
2018-10-21T16:59:11.561Z,19.26
2018-10-21T17:01:39.938Z,18.86
2018-10-21T17:04:08.297Z,18.87
2018-10-21T17:06:36.716Z,18.72
2018-10-21T17:09:08.912Z,18.58
2018-10-21T17:11:42.719Z,18.85
2018-10-21T17:14:11.245Z,18.53
2018-10-21T17:16:40.110Z,18.65
2018-10-21T17:19:08.783Z,18.64
2018-10-21T17:21:37.148Z,18.48
2018-10-21T17:24:05.770Z,18.46
2018-10-21T17:26:34.100Z,18.39
2018-10-21T17:29:02.604Z,18.47
2018-10-21T17:31:31.085Z,18.35
2018-10-21T17:33:59.546Z,18.27
2018-10-21T17:36:27.829Z,18.30
2018-10-21T17:38:56.142Z,18.07
2018-10-21T17:41:24.806Z,18.06
2018-10-21T17:43:53.189Z,18.05
2018-10-21T17:46:21.633Z,17.95
2018-10-21T17:48:50.203Z,18.08
2018-10-21T17:51:18.651Z,17.92
2018-10-21T17:53:47.076Z,17.92
2018-10-21T17:56:15.630Z,17.83
2018-10-21T17:58:44.005Z,17.66
2018-10-21T18:01:12.823Z,17.56
2018-10-21T18:03:41.091Z,17.49
2018-10-21T18:06:09.510Z,17.35
2018-10-21T18:08:38.081Z,17.30
2018-10-21T18:11:07.000Z,17.10
2018-10-21T18:13:35.440Z,17.12
2018-10-21T18:16:03.943Z,17.10
2018-10-21T18:18:32.379Z,17.22
2018-10-21T18:21:00.942Z,16.99
2018-10-21T18:23:29.336Z,16.86
2018-10-21T18:25:57.710Z,16.87
2018-10-21T18:28:26.186Z,16.78
2018-10-21T18:30:54.513Z,16.72
2018-10-21T18:33:22.866Z,16.66
2018-10-21T18:35:51.206Z,16.60
2018-10-21T18:38:19.536Z,16.50
2018-10-21T18:40:47.961Z,16.41
2018-10-21T18:43:16.195Z,16.47
2018-10-21T18:45:44.451Z,16.31
2018-10-21T18:48:12.766Z,16.16
2018-10-21T18:50:41.122Z,16.05
2018-10-21T18:53:09.395Z,16.22
2018-10-21T18:55:38.012Z,16.00
2018-10-21T18:58:06.397Z,16.11
2018-10-21T19:00:34.948Z,15.96
2018-10-21T19:03:03.267Z,15.79
2018-10-21T19:05:31.608Z,15.83
2018-10-21T19:07:59.988Z,15.84
2018-10-21T19:10:28.449Z,15.72
2018-10-21T19:13:00.052Z,15.85
2018-10-21T19:15:25.121Z,15.80
2018-10-21T19:17:53.447Z,15.77
2018-10-21T19:20:21.776Z,15.68
2018-10-21T19:22:50.932Z,15.77
2018-10-21T19:25:23.181Z,15.41
2018-10-21T19:27:52.125Z,15.50
2018-10-21T19:30:24.651Z,15.23
2018-10-21T19:32:55.285Z,15.54
2018-10-21T19:35:26.260Z,15.46
2018-10-21T19:37:54.704Z,15.33
2018-10-21T19:40:23.077Z,15.26
2018-10-21T19:42:51.485Z,15.22
2018-10-21T19:45:20.014Z,15.11
2018-10-21T19:47:48.403Z,15.16
2018-10-21T19:50:17.241Z,15.12
2018-10-21T19:52:45.806Z,14.92
2018-10-21T19:55:14.170Z,14.81
2018-10-21T19:57:43.044Z,14.79
2018-10-21T20:00:14.058Z,14.61
2018-10-21T20:02:42.687Z,14.69
2018-10-21T20:05:11.104Z,14.67
2018-10-21T20:07:39.405Z,14.69
2018-10-21T20:10:09.450Z,14.62
2018-10-21T20:12:38.060Z,14.74
2018-10-21T20:15:08.084Z,14.58
2018-10-21T20:17:36.358Z,14.57
2018-10-21T20:20:05.180Z,14.55
2018-10-21T20:22:35.185Z,14.31
2018-10-21T20:25:03.826Z,14.44
2018-10-21T20:27:32.187Z,14.23
2018-10-21T20:30:00.639Z,14.28
2018-10-21T20:32:29.071Z,14.24
2018-10-21T20:34:57.406Z,14.06
2018-10-21T20:37:25.690Z,14.19
2018-10-21T20:39:54.090Z,13.89
2018-10-21T20:42:22.781Z,13.68
2018-10-21T20:44:51.307Z,13.78
2018-10-21T20:47:19.907Z,13.91
2018-10-21T20:49:48.212Z,13.94
2018-10-21T20:52:16.956Z,13.77
2018-10-21T20:54:46.449Z,13.78
2018-10-21T20:57:14.971Z,13.69
2018-10-21T20:59:44.530Z,13.71
2018-10-21T21:02:14.004Z,13.57
2018-10-21T21:04:42.812Z,13.40
2018-10-21T21:07:11.724Z,13.41
2018-10-21T21:09:40.689Z,13.30
2018-10-21T21:12:09.064Z,13.19
2018-10-21T21:14:37.547Z,13.36
2018-10-21T21:17:06.144Z,13.08
2018-10-21T21:19:34.640Z,13.19
2018-10-21T21:22:03.262Z,13.34
2018-10-21T21:24:31.997Z,13.25
2018-10-21T21:27:00.419Z,13.20
2018-10-21T21:29:28.767Z,13.17
2018-10-21T21:31:57.071Z,13.15
2018-10-21T21:34:25.513Z,13.16
2018-10-21T21:36:53.922Z,13.12
2018-10-21T21:39:22.574Z,12.99
2018-10-21T21:41:50.882Z,12.99
2018-10-21T21:44:19.318Z,13.11
2018-10-21T21:46:47.849Z,12.95
2018-10-21T21:49:16.224Z,12.87
2018-10-21T21:51:44.534Z,12.90
2018-10-21T21:54:13.792Z,12.91
2018-10-21T21:56:42.692Z,12.89
2018-10-21T21:59:11.077Z,12.97
2018-10-21T22:01:39.409Z,12.58
2018-10-21T22:04:08.252Z,12.80
2018-10-21T22:06:36.777Z,12.71
2018-10-21T22:09:09.231Z,12.70
2018-10-21T22:11:38.259Z,12.90
2018-10-21T22:14:07.043Z,12.92
2018-10-21T22:16:35.350Z,12.64
2018-10-21T22:19:03.797Z,12.67
2018-10-21T22:21:32.190Z,12.56
2018-10-21T22:24:00.521Z,12.37
2018-10-21T22:26:28.927Z,12.80
2018-10-21T22:28:57.299Z,12.80
2018-10-21T22:31:25.785Z,12.49
2018-10-21T22:33:54.170Z,12.56
2018-10-21T22:36:22.456Z,11.88
2018-10-21T22:38:50.849Z,12.13
2018-10-21T22:41:19.270Z,12.33
2018-10-21T22:43:47.529Z,11.95
2018-10-21T22:46:16.037Z,12.05
2018-10-21T22:48:44.487Z,12.11
2018-10-21T22:51:12.787Z,11.90
2018-10-21T22:53:41.208Z,11.68
2018-10-21T22:56:09.568Z,11.83
2018-10-21T22:58:37.856Z,11.94
2018-10-21T23:01:07.358Z,11.70
2018-10-21T23:03:35.634Z,11.60
2018-10-21T23:06:04.055Z,11.19
2018-10-21T23:08:33.186Z,11.37
2018-10-21T23:11:01.599Z,11.91
2018-10-21T23:13:30.088Z,11.62
2018-10-21T23:15:58.619Z,11.70
2018-10-21T23:18:27.002Z,11.90
2018-10-21T23:20:55.464Z,11.71
2018-10-21T23:23:23.890Z,11.69
2018-10-21T23:25:52.128Z,11.80
2018-10-21T23:28:20.752Z,12.00
2018-10-21T23:30:48.990Z,11.83
2018-10-21T23:33:17.247Z,12.08
2018-10-21T23:35:45.579Z,12.14
2018-10-21T23:38:14.020Z,12.11
2018-10-21T23:40:42.424Z,11.87
2018-10-21T23:43:10.782Z,11.92
2018-10-21T23:45:39.036Z,11.92
2018-10-21T23:48:07.443Z,12.09
2018-10-21T23:50:35.763Z,12.02
2018-10-21T23:53:04.098Z,11.99
2018-10-21T23:55:32.377Z,11.91
2018-10-21T23:58:01.000Z,11.82
